www.cux-wetter.de
Wetterdaten: Montag, 13.10.2008
Datum Zeit Temp. A. Feuchte A. Luftdruck Regen Wind Richtung Richtung Sonnenschein Solar Taupunkt Windchill Windben
13.10.2008 00:02 11,8 C 89 % 1021,5 hPa 0,0 l/m 4,6 km/h (1 Bft) SW 225 0 min 0 W/m 10,0 C 11,8 C 4,6 km/h (1 Bft)
13.10.2008 00:07 12,0 C 90 % 1021,5 hPa 0,0 l/m 3,9 km/h (1 Bft) SW 230 0 min 0 W/m 10,4 C 12,0 C 3,9 km/h (1 Bft)
13.10.2008 00:11 12,2 C 90 % 1021,5 hPa 0,0 l/m 5,6 km/h (2 Bft) S-SW 210 0 min 0 W/m 10,6 C 12,2 C 5,6 km/h (2 Bft)
13.10.2008 00:16 12,2 C 89 % 1021,5 hPa 0,0 l/m 5,5 km/h (2 Bft) S-SW 205 0 min 0 W/m 10,4 C 12,2 C 5,5 km/h (2 Bft)
13.10.2008 00:21 12,2 C 88 % 1021,5 hPa 0,0 l/m 5,9 km/h (2 Bft) S 190 0 min 0 W/m 10,3 C 12,2 C 5,9 km/h (2 Bft)
13.10.2008 00:26 12,0 C 88 % 1021,5 hPa 0,0 l/m 7,9 km/h (2 Bft) S-SW 210 0 min 0 W/m 10,1 C 11,0 C 7,9 km/h (2 Bft)
13.10.2008 00:31 11,9 C 88 % 1021,5 hPa 0,0 l/m 8,1 km/h (2 Bft) S-SW 205 0 min 0 W/m 10,0 C 10,8 C 8,1 km/h (2 Bft)
13.10.2008 00:36 12,0 C 89 % 1020,5 hPa 0,0 l/m 7,2 km/h (2 Bft) S-SW 205 0 min 0 W/m 10,2 C 11,5 C 7,2 km/h (2 Bft)
13.10.2008 00:41 12,0 C 88 % 1021,5 hPa 0,0 l/m 6,5 km/h (2 Bft) W-SW 245 0 min 0 W/m 10,1 C 12,0 C 6,5 km/h (2 Bft)
13.10.2008 00:46 11,6 C 87 % 1021,5 hPa 0,0 l/m 5,6 km/h (2 Bft) SW 235 0 min 0 W/m 9,5 C 11,6 C 5,6 km/h (2 Bft)
13.10.2008 00:51 11,6 C 89 % 1021,5 hPa 0,0 l/m 4,0 km/h (1 Bft) SW 230 0 min 0 W/m 9,8 C 11,6 C 4,0 km/h (1 Bft)
13.10.2008 00:56 11,8 C 89 % 1021,5 hPa 0,0 l/m 0,7 km/h (0 Bft) SW 230 0 min 0 W/m 10,0 C 11,8 C 0,7 km/h (0 Bft)
13.10.2008 01:01 12,0 C 90 % 1021,5 hPa 0,0 l/m 0,8 km/h (0 Bft) SW 230 0 min 0 W/m 10,4 C 12,0 C 0,8 km/h (0 Bft)
13.10.2008 01:06 12,0 C 90 % 1020,5 hPa 0,0 l/m 2,2 km/h (1 Bft) SW 230 0 min 0 W/m 10,4 C 12,0 C 2,2 km/h (1 Bft)
13.10.2008 01:11 12,0 C 88 % 1020,5 hPa 0,0 l/m 1,8 km/h (1 Bft) SW 230 0 min 0 W/m 10,1 C 12,0 C 1,8 km/h (1 Bft)
13.10.2008 01:16 11,8 C 87 % 1020,5 hPa 0,0 l/m 3,7 km/h (1 Bft) S-SW 205 0 min 0 W/m 9,7 C 11,8 C 3,7 km/h (1 Bft)
13.10.2008 01:21 11,8 C 88 % 1020,5 hPa 0,0 l/m 1,7 km/h (1 Bft) S 180 0 min 0 W/m 9,9 C 11,8 C 1,7 km/h (1 Bft)
13.10.2008 01:26 11,9 C 88 % 1020,5 hPa 0,0 l/m 5,4 km/h (2 Bft) S 180 0 min 0 W/m 10,0 C 11,9 C 5,4 km/h (2 Bft)
13.10.2008 01:31 11,8 C 87 % 1020,5 hPa 0,0 l/m 5,4 km/h (2 Bft) S 185 0 min 0 W/m 9,7 C 11,8 C 5,4 km/h (2 Bft)
13.10.2008 01:36 11,6 C 87 % 1020,5 hPa 0,0 l/m 6,2 km/h (2 Bft) S-SO 160 0 min 0 W/m 9,5 C 11,6 C 6,2 km/h (2 Bft)
13.10.2008 01:41 11,6 C 88 % 1020,5 hPa 0,0 l/m 7,2 km/h (2 Bft) S 180 0 min 0 W/m 9,7 C 11,1 C 7,2 km/h (2 Bft)
13.10.2008 01:46 11,5 C 88 % 1020,5 hPa 0,0 l/m 6,3 km/h (2 Bft) S 190 0 min 0 W/m 9,6 C 11,5 C 6,3 km/h (2 Bft)
13.10.2008 01:51 11,4 C 88 % 1020,5 hPa 0,0 l/m 1,3 km/h (1 Bft) S 175 0 min 0 W/m 9,5 C 11,4 C 1,3 km/h (1 Bft)
13.10.2008 01:56 11,4 C 88 % 1020,5 hPa 0,0 l/m 3,0 km/h (1 Bft) S 175 0 min 0 W/m 9,5 C 11,4 C 3,0 km/h (1 Bft)
13.10.2008 02:01 11,5 C 89 % 1020,5 hPa 0,0 l/m 0,9 km/h (0 Bft) S 175 0 min 0 W/m 9,8 C 11,5 C 0,9 km/h (0 Bft)
13.10.2008 02:06 11,6 C 88 % 1020,5 hPa 0,0 l/m 2,7 km/h (1 Bft) S 175 0 min 0 W/m 9,7 C 11,6 C 2,7 km/h (1 Bft)
13.10.2008 02:11 11,7 C 88 % 1020,5 hPa 0,0 l/m 0,6 km/h (0 Bft) S 175 0 min 0 W/m 9,8 C 11,7 C 0,6 km/h (0 Bft)
13.10.2008 02:16 11,6 C 88 % 1020,5 hPa 0,0 l/m 0,4 km/h (0 Bft) S 175 0 min 0 W/m 9,7 C 11,6 C 0,4 km/h (0 Bft)
13.10.2008 02:21 11,7 C 88 % 1020,5 hPa 0,0 l/m 0,0 km/h (0 Bft) S 175 0 min 0 W/m 9,8 C 11,7 C 0,0 km/h (0 Bft)
13.10.2008 02:26 11,6 C 87 % 1020,5 hPa 0,0 l/m 0,0 km/h (0 Bft) S 175 0 min 0 W/m 9,5 C 11,6 C 0,0 km/h (0 Bft)
13.10.2008 02:31 11,4 C 87 % 1020,5 hPa 0,0 l/m 0,0 km/h (0 Bft) S 175 0 min 0 W/m 9,3 C 11,4 C 0,0 km/h (0 Bft)
13.10.2008 02:36 11,3 C 87 % 1020,5 hPa 0,0 l/m 0,0 km/h (0 Bft) S 175 0 min 0 W/m 9,2 C 11,3 C 0,0 km/h (0 Bft)
13.10.2008 02:41 11,0 C 86 % 1020,5 hPa 0,0 l/m 4,9 km/h (1 Bft) S 175 0 min 0 W/m 8,7 C 11,0 C 4,9 km/h (1 Bft)
13.10.2008 02:46 11,0 C 86 % 1020,5 hPa 0,0 l/m 4,8 km/h (1 Bft) S 175 0 min 0 W/m 8,7 C 11,0 C 4,8 km/h (1 Bft)
13.10.2008 02:51 10,4 C 87 % 1020,5 hPa 0,0 l/m 5,4 km/h (2 Bft) S-SO 165 0 min 0 W/m 8,3 C 10,4 C 5,4 km/h (2 Bft)
13.10.2008 02:56 10,2 C 87 % 1020,5 hPa 0,0 l/m 5,7 km/h (2 Bft) SO 145 0 min 0 W/m 8,1 C 10,2 C 5,7 km/h (2 Bft)
13.10.2008 03:01 10,2 C 87 % 1020,5 hPa 0,0 l/m 6,3 km/h (2 Bft) SO 145 0 min 0 W/m 8,1 C 10,2 C 6,3 km/h (2 Bft)
13.10.2008 03:06 10,0 C 88 % 1019,5 hPa 0,0 l/m 4,6 km/h (1 Bft) SO 145 0 min 0 W/m 8,1 C 10,0 C 4,6 km/h (1 Bft)
13.10.2008 03:11 10,1 C 89 % 1019,5 hPa 0,0 l/m 0,1 km/h (0 Bft) SO 145 0 min 0 W/m 8,4 C 10,1 C 0,1 km/h (0 Bft)
13.10.2008 03:16 10,2 C 89 % 1019,5 hPa 0,0 l/m 0,1 km/h (0 Bft) SO 140 0 min 0 W/m 8,5 C 10,2 C 0,1 km/h (0 Bft)
13.10.2008 03:21 10,1 C 89 % 1019,5 hPa 0,0 l/m 5,4 km/h (2 Bft) SO 140 0 min 0 W/m 8,4 C 10,1 C 5,4 km/h (2 Bft)
13.10.2008 03:26 10,1 C 89 % 1019,5 hPa 0,0 l/m 5,4 km/h (2 Bft) SO 140 0 min 0 W/m 8,4 C 10,1 C 5,4 km/h (2 Bft)
13.10.2008 03:31 10,0 C 89 % 1019,5 hPa 0,0 l/m 5,6 km/h (2 Bft) S 180 0 min 0 W/m 8,3 C 10,0 C 5,6 km/h (2 Bft)
13.10.2008 03:36 10,2 C 89 % 1019,5 hPa 0,0 l/m 6,8 km/h (2 Bft) S-SW 195 0 min 0 W/m 8,5 C 9,9 C 6,8 km/h (2 Bft)
13.10.2008 03:41 10,2 C 89 % 1019,5 hPa 0,0 l/m 6,9 km/h (2 Bft) S 175 0 min 0 W/m 8,5 C 9,8 C 6,9 km/h (2 Bft)
13.10.2008 03:46 10,0 C 89 % 1019,5 hPa 0,0 l/m 6,3 km/h (2 Bft) S 175 0 min 0 W/m 8,3 C 10,0 C 6,3 km/h (2 Bft)
13.10.2008 03:51 9,9 C 89 % 1019,5 hPa 0,0 l/m 10,0 km/h (2 Bft) S 190 0 min 0 W/m 8,2 C 7,5 C 10,0 km/h (2 Bft)
13.10.2008 03:56 9,9 C 89 % 1019,5 hPa 0,0 l/m 6,5 km/h (2 Bft) S 185 0 min 0 W/m 8,2 C 9,9 C 6,5 km/h (2 Bft)
13.10.2008 04:01 9,7 C 89 % 1019,5 hPa 0,0 l/m 6,5 km/h (2 Bft) S 175 0 min 0 W/m 8,0 C 9,7 C 6,5 km/h (2 Bft)
13.10.2008 04:06 9,6 C 89 % 1018,5 hPa 0,0 l/m 6,4 km/h (2 Bft) S 190 0 min 0 W/m 7,9 C 9,6 C 6,4 km/h (2 Bft)
13.10.2008 04:11 9,5 C 89 % 1018,5 hPa 0,0 l/m 7,0 km/h (2 Bft) S-SW 195 0 min 0 W/m 7,8 C 9,1 C 7,0 km/h (2 Bft)
13.10.2008 04:16 9,4 C 90 % 1018,5 hPa 0,0 l/m 6,5 km/h (2 Bft) S-SW 200 0 min 0 W/m 7,8 C 9,4 C 6,5 km/h (2 Bft)
13.10.2008 04:21 9,3 C 90 % 1018,5 hPa 0,0 l/m 6,5 km/h (2 Bft) S 180 0 min 0 W/m 7,7 C 9,3 C 6,5 km/h (2 Bft)
13.10.2008 04:26 9,2 C 90 % 1018,5 hPa 0,0 l/m 8,3 km/h (2 Bft) S 180 0 min 0 W/m 7,6 C 7,8 C 8,3 km/h (2 Bft)
13.10.2008 04:31 9,2 C 90 % 1018,5 hPa 0,0 l/m 7,9 km/h (2 Bft) S 185 0 min 0 W/m 7,6 C 8,1 C 7,9 km/h (2 Bft)
13.10.2008 04:36 9,5 C 91 % 1018,5 hPa 0,0 l/m 7,9 km/h (2 Bft) S-SW 195 0 min 0 W/m 8,1 C 8,4 C 7,9 km/h (2 Bft)
13.10.2008 04:41 9,6 C 91 % 1018,5 hPa 0,0 l/m 9,9 km/h (2 Bft) S-SW 195 0 min 0 W/m 8,2 C 7,2 C 9,9 km/h (2 Bft)
13.10.2008 04:46 9,7 C 91 % 1018,5 hPa 0,0 l/m 8,9 km/h (2 Bft) S 190 0 min 0 W/m 8,3 C 7,9 C 8,9 km/h (2 Bft)
13.10.2008 04:51 10,2 C 92 % 1018,5 hPa 0,0 l/m 8,5 km/h (2 Bft) S 180 0 min 0 W/m 9,0 C 8,7 C 8,5 km/h (2 Bft)
13.10.2008 04:56 10,2 C 92 % 1018,5 hPa 0,0 l/m 5,9 km/h (2 Bft) S 190 0 min 0 W/m 9,0 C 10,2 C 5,9 km/h (2 Bft)
13.10.2008 05:01 10,8 C 91 % 1018,5 hPa 0,0 l/m 8,2 km/h (2 Bft) S 180 0 min 0 W/m 9,4 C 9,6 C 8,2 km/h (2 Bft)
13.10.2008 05:06 10,8 C 90 % 1018,5 hPa 0,0 l/m 7,8 km/h (2 Bft) S 190 0 min 0 W/m 9,2 C 9,8 C 7,8 km/h (2 Bft)
13.10.2008 05:11 10,8 C 90 % 1018,5 hPa 0,0 l/m 7,8 km/h (2 Bft) SW 215 0 min 0 W/m 9,2 C 9,8 C 7,8 km/h (2 Bft)
13.10.2008 05:16 11,0 C 89 % 1018,5 hPa 0,0 l/m 9,7 km/h (2 Bft) SW 215 0 min 0 W/m 9,3 C 8,9 C 9,7 km/h (2 Bft)
13.10.2008 05:21 10,9 C 88 % 1018,5 hPa 0,0 l/m 9,4 km/h (2 Bft) W-SW 240 0 min 0 W/m 9,0 C 8,9 C 9,4 km/h (2 Bft)
13.10.2008 05:26 10,8 C 88 % 1018,5 hPa 0,0 l/m 9,3 km/h (2 Bft) SW 215 0 min 0 W/m 8,9 C 8,9 C 9,3 km/h (2 Bft)
13.10.2008 05:31 10,8 C 89 % 1018,5 hPa 0,0 l/m 11,6 km/h (2 Bft) S-SW 195 0 min 0 W/m 9,1 C 7,6 C 11,6 km/h (2 Bft)
13.10.2008 05:36 10,7 C 88 % 1018,5 hPa 0,0 l/m 11,5 km/h (2 Bft) S-SW 205 0 min 0 W/m 8,8 C 7,6 C 11,5 km/h (2 Bft)
13.10.2008 05:41 11,0 C 89 % 1018,5 hPa 0,0 l/m 8,8 km/h (2 Bft) S-SW 205 0 min 0 W/m 9,3 C 9,4 C 8,8 km/h (2 Bft)
13.10.2008 05:46 11,0 C 89 % 1018,5 hPa 0,0 l/m 8,5 km/h (2 Bft) S-SW 205 0 min 0 W/m 9,3 C 9,6 C 8,5 km/h (2 Bft)
13.10.2008 05:51 11,0 C 88 % 1017,5 hPa 0,0 l/m 7,9 km/h (2 Bft) S-SW 210 0 min 0 W/m 9,1 C 10,0 C 7,9 km/h (2 Bft)
13.10.2008 05:56 11,0 C 88 % 1017,5 hPa 0,3 l/m 10,6 km/h (2 Bft) S-SW 205 0 min 0 W/m 9,1 C 8,4 C 10,6 km/h (2 Bft)
13.10.2008 06:01 11,0 C 88 % 1017,5 hPa 0,0 l/m 9,7 km/h (2 Bft) S-SW 205 0 min 0 W/m 9,1 C 8,9 C 9,7 km/h (2 Bft)
13.10.2008 06:06 11,0 C 88 % 1017,5 hPa 0,0 l/m 9,9 km/h (2 Bft) S-SW 200 0 min 0 W/m 9,1 C 8,8 C 9,9 km/h (2 Bft)
13.10.2008 06:11 11,0 C 88 % 1017,5 hPa 0,0 l/m 12,3 km/h (2 Bft) S-SW 210 0 min 0 W/m 9,1 C 7,5 C 12,3 km/h (2 Bft)
13.10.2008 06:16 10,7 C 88 % 1017,5 hPa 0,0 l/m 11,4 km/h (2 Bft) W-SW 240 0 min 0 W/m 8,8 C 7,6 C 11,4 km/h (2 Bft)
13.10.2008 06:21 10,6 C 88 % 1017,5 hPa 0,0 l/m 7,4 km/h (2 Bft) W-SW 255 0 min 0 W/m 8,7 C 9,9 C 7,4 km/h (2 Bft)
13.10.2008 06:26 10,5 C 89 % 1017,5 hPa 0,0 l/m 10,4 km/h (2 Bft) SW 225 0 min 0 W/m 8,8 C 7,9 C 10,4 km/h (2 Bft)
13.10.2008 06:31 10,6 C 89 % 1017,5 hPa 0,0 l/m 10,4 km/h (2 Bft) S-SW 210 0 min 0 W/m 8,9 C 8,0 C 10,4 km/h (2 Bft)
13.10.2008 06:36 10,6 C 90 % 1017,5 hPa 0,0 l/m 12,2 km/h (2 Bft) S-SW 205 0 min 0 W/m 9,0 C 7,1 C 12,2 km/h (2 Bft)
13.10.2008 06:41 10,7 C 90 % 1017,5 hPa 0,0 l/m 11,8 km/h (2 Bft) S-SW 200 0 min 0 W/m 9,1 C 7,4 C 11,8 km/h (2 Bft)
13.10.2008 06:46 10,9 C 90 % 1017,5 hPa 0,0 l/m 9,6 km/h (2 Bft) S-SW 200 0 min 0 W/m 9,3 C 8,8 C 9,6 km/h (2 Bft)
13.10.2008 06:51 11,0 C 90 % 1017,5 hPa 0,0 l/m 10,7 km/h (2 Bft) S-SW 205 0 min 0 W/m 9,4 C 8,3 C 10,7 km/h (2 Bft)
13.10.2008 06:57 10,8 C 90 % 1017,5 hPa 0,0 l/m 9,7 km/h (2 Bft) SW 215 0 min 0 W/m 9,2 C 8,6 C 9,7 km/h (2 Bft)
13.10.2008 07:02 10,9 C 90 % 1016,5 hPa 0,0 l/m 11,8 km/h (2 Bft) S-SW 210 0 min 0 W/m 9,3 C 7,6 C 11,8 km/h (2 Bft)
13.10.2008 07:06 11,0 C 91 % 1016,5 hPa 0,0 l/m 13,1 km/h (3 Bft) S-SW 205 0 min 0 W/m 9,6 C 7,2 C 13,1 km/h (3 Bft)
13.10.2008 07:11 11,0 C 91 % 1016,5 hPa 0,0 l/m 10,1 km/h (2 Bft) SW 235 0 min 0 W/m 9,6 C 8,6 C 10,1 km/h (2 Bft)
13.10.2008 07:16 11,0 C 91 % 1016,5 hPa 0,0 l/m 13,9 km/h (3 Bft) SW 235 0 min 0 W/m 9,6 C 6,8 C 13,9 km/h (3 Bft)
13.10.2008 07:21 10,9 C 91 % 1016,5 hPa 0,0 l/m 15,5 km/h (3 Bft) SW 235 0 min 0 W/m 9,5 C 6,0 C 15,5 km/h (3 Bft)
13.10.2008 07:26 10,8 C 91 % 1016,5 hPa 0,0 l/m 14,1 km/h (3 Bft) S-SW 205 0 min 0 W/m 9,4 C 6,5 C 14,1 km/h (3 Bft)
13.10.2008 07:31 11,0 C 92 % 1016,5 hPa 0,0 l/m 13,2 km/h (3 Bft) SW 220 0 min 0 W/m 9,8 C 7,1 C 13,2 km/h (3 Bft)
13.10.2008 07:36 11,0 C 92 % 1016,5 hPa 0,0 l/m 16,1 km/h (3 Bft) SW 215 0 min 0 W/m 9,8 C 5,9 C 16,1 km/h (3 Bft)
13.10.2008 07:41 11,0 C 92 % 1016,5 hPa 0,0 l/m 12,5 km/h (2 Bft) SW 220 0 min 0 W/m 9,8 C 7,4 C 12,5 km/h (2 Bft)
13.10.2008 07:46 11,1 C 92 % 1016,5 hPa 0,0 l/m 13,0 km/h (3 Bft) SW 230 0 min 0 W/m 9,8 C 7,3 C 13,0 km/h (3 Bft)
13.10.2008 07:51 11,2 C 92 % 1016,5 hPa 0,0 l/m 14,1 km/h (3 Bft) SW 220 0 min 0 W/m 9,9 C 7,0 C 14,1 km/h (3 Bft)
13.10.2008 07:56 11,2 C 92 % 1016,5 hPa 0,0 l/m 12,3 km/h (2 Bft) S-SW 210 0 min 0 W/m 9,9 C 7,8 C 12,3 km/h (2 Bft)
13.10.2008 08:01 11,4 C 93 % 1016,5 hPa 0,0 l/m 9,2 km/h (2 Bft) S-SW 205 0 min 0 W/m 10,3 C 9,6 C 9,2 km/h (2 Bft)
13.10.2008 08:06 11,5 C 92 % 1016,5 hPa 0,0 l/m 12,1 km/h (2 Bft) SW 220 0 min 0 W/m 10,2 C 8,2 C 12,1 km/h (2 Bft)
13.10.2008 08:11 11,4 C 92 % 1016,5 hPa 0,0 l/m 11,7 km/h (2 Bft) W-SW 240 0 min 0 W/m 10,1 C 8,3 C 11,7 km/h (2 Bft)
13.10.2008 08:16 11,4 C 92 % 1016,5 hPa 0,0 l/m 11,6 km/h (2 Bft) SW 225 0 min 0 W/m 10,1 C 8,3 C 11,6 km/h (2 Bft)
13.10.2008 08:21 11,5 C 93 % 1016,5 hPa 0,0 l/m 13,5 km/h (3 Bft) SW 215 0 min 0 W/m 10,4 C 7,6 C 13,5 km/h (3 Bft)
13.10.2008 08:26 11,4 C 92 % 1016,5 hPa 0,0 l/m 11,3 km/h (2 Bft) S-SW 200 0 min 0 W/m 10,1 C 8,5 C 11,3 km/h (2 Bft)
13.10.2008 08:31 11,2 C 92 % 1016,5 hPa 0,0 l/m 11,7 km/h (2 Bft) S-SW 195 0 min 0 W/m 9,9 C 8,0 C 11,7 km/h (2 Bft)
13.10.2008 08:36 11,1 C 93 % 1016,5 hPa 0,0 l/m 11,8 km/h (2 Bft) S-SW 210 0 min 0 W/m 10,0 C 7,9 C 11,8 km/h (2 Bft)
13.10.2008 08:41 11,0 C 93 % 1016,5 hPa 0,0 l/m 8,1 km/h (2 Bft) SW 215 0 min 0 W/m 9,9 C 9,8 C 8,1 km/h (2 Bft)
13.10.2008 08:46 11,1 C 93 % 1016,5 hPa 0,0 l/m 13,9 km/h (3 Bft) S-SW 205 0 min 0 W/m 10,0 C 6,9 C 13,9 km/h (3 Bft)
13.10.2008 08:51 11,1 C 93 % 1016,5 hPa 0,0 l/m 12,4 km/h (2 Bft) S-SW 205 0 min 0 W/m 10,0 C 7,6 C 12,4 km/h (2 Bft)
13.10.2008 08:56 11,1 C 93 % 1016,5 hPa 0,0 l/m 16,0 km/h (3 Bft) S-SW 210 0 min 0 W/m 10,0 C 6,1 C 16,0 km/h (3 Bft)
13.10.2008 09:01 11,2 C 93 % 1016,5 hPa 0,0 l/m 12,3 km/h (2 Bft) S-SW 210 0 min 0 W/m 10,1 C 7,8 C 12,3 km/h (2 Bft)
13.10.2008 09:06 11,2 C 94 % 1016,5 hPa 0,0 l/m 15,0 km/h (3 Bft) SW 220 0 min 0 W/m 10,3 C 6,6 C 15,0 km/h (3 Bft)
13.10.2008 09:11 11,3 C 94 % 1016,5 hPa 0,0 l/m 17,4 km/h (3 Bft) SW 215 0 min 0 W/m 10,4 C 5,8 C 17,4 km/h (3 Bft)
13.10.2008 09:16 11,3 C 94 % 1016,5 hPa 0,0 l/m 15,1 km/h (3 Bft) SW 215 0 min 0 W/m 10,4 C 6,7 C 15,1 km/h (3 Bft)
13.10.2008 09:21 11,4 C 94 % 1016,5 hPa 0,0 l/m 13,7 km/h (3 Bft) SW 215 0 min 0 W/m 10,5 C 7,4 C 13,7 km/h (3 Bft)
13.10.2008 09:26 11,5 C 94 % 1016,5 hPa 0,0 l/m 12,3 km/h (2 Bft) S-SW 205 0 min 0 W/m 10,6 C 8,1 C 12,3 km/h (2 Bft)
13.10.2008 09:31 11,6 C 94 % 1016,5 hPa 0,0 l/m 11,2 km/h (2 Bft) S-SW 210 0 min 0 W/m 10,7 C 8,7 C 11,2 km/h (2 Bft)
13.10.2008 09:36 11,6 C 94 % 1016,5 hPa 0,0 l/m 13,9 km/h (3 Bft) SW 225 0 min 0 W/m 10,7 C 7,5 C 13,9 km/h (3 Bft)
13.10.2008 09:41 11,7 C 94 % 1016,5 hPa 0,0 l/m 11,1 km/h (2 Bft) S-SW 195 0 min 0 W/m 10,8 C 8,9 C 11,1 km/h (2 Bft)
13.10.2008 09:46 11,8 C 94 % 1016,5 hPa 0,0 l/m 13,4 km/h (3 Bft) SW 215 0 min 0 W/m 10,9 C 8,0 C 13,4 km/h (3 Bft)
13.10.2008 09:51 11,9 C 94 % 1016,5 hPa 0,0 l/m 12,7 km/h (3 Bft) SW 215 0 min 0 W/m 11,0 C 8,4 C 12,7 km/h (3 Bft)
13.10.2008 09:56 12,0 C 95 % 1016,5 hPa 0,0 l/m 11,9 km/h (2 Bft) S-SW 205 0 min 0 W/m 11,2 C 8,9 C 11,9 km/h (2 Bft)
13.10.2008 10:01 12,1 C 95 % 1016,5 hPa 0,0 l/m 15,3 km/h (3 Bft) S-SW 205 0 min 0 W/m 11,3 C 7,6 C 15,3 km/h (3 Bft)
13.10.2008 10:06 12,2 C 95 % 1016,5 hPa 0,0 l/m 12,1 km/h (2 Bft) SW 230 0 min 0 W/m 11,4 C 9,0 C 12,1 km/h (2 Bft)
13.10.2008 10:11 12,2 C 95 % 1016,5 hPa 0,0 l/m 12,9 km/h (3 Bft) SW 225 0 min 0 W/m 11,4 C 8,6 C 12,9 km/h (3 Bft)
13.10.2008 10:16 12,4 C 96 % 1016,5 hPa 0,0 l/m 12,6 km/h (3 Bft) SW 230 0 min 0 W/m 11,8 C 9,0 C 12,6 km/h (3 Bft)
13.10.2008 10:21 12,6 C 96 % 1016,5 hPa 0,0 l/m 14,8 km/h (3 Bft) W 265 0 min 0 W/m 12,0 C 8,4 C 14,8 km/h (3 Bft)
13.10.2008 10:26 12,7 C 96 % 1016,5 hPa 0,0 l/m 14,8 km/h (3 Bft) W-SW 245 0 min 0 W/m 12,1 C 8,5 C 14,8 km/h (3 Bft)
13.10.2008 10:31 12,8 C 95 % 1016,5 hPa 0,0 l/m 20,6 km/h (4 Bft) W-SW 255 0 min 0 W/m 12,0 C 6,7 C 20,6 km/h (4 Bft)
13.10.2008 10:36 12,8 C 95 % 1016,5 hPa 0,0 l/m 27,4 km/h (5 Bft) W 270 0 min 0 W/m 12,0 C 5,1 C 27,4 km/h (5 Bft)
13.10.2008 10:41 12,7 C 95 % 1016,5 hPa 0,0 l/m 18,7 km/h (3 Bft) W 260 0 min 0 W/m 11,9 C 7,2 C 18,7 km/h (3 Bft)
13.10.2008 10:46 12,6 C 95 % 1016,5 hPa 0,0 l/m 18,9 km/h (3 Bft) W 260 0 min 0 W/m 11,8 C 7,0 C 18,9 km/h (3 Bft)
13.10.2008 10:51 12,6 C 95 % 1016,5 hPa 0,0 l/m 20,1 km/h (4 Bft) W-SW 250 0 min 0 W/m 11,8 C 6,6 C 20,1 km/h (4 Bft)
13.10.2008 10:56 12,7 C 95 % 1016,5 hPa 0,0 l/m 19,6 km/h (3 Bft) W-SW 255 0 min 0 W/m 11,9 C 6,9 C 19,6 km/h (3 Bft)
13.10.2008 11:01 12,7 C 96 % 1015,5 hPa 0,0 l/m 17,8 km/h (3 Bft) W-SW 250 0 min 0 W/m 12,1 C 7,4 C 17,8 km/h (3 Bft)
13.10.2008 11:06 12,9 C 96 % 1015,5 hPa 0,0 l/m 21,0 km/h (4 Bft) W-SW 240 0 min 0 W/m 12,3 C 6,8 C 21,0 km/h (4 Bft)
13.10.2008 11:11 13,0 C 96 % 1015,5 hPa 0,0 l/m 24,4 km/h (4 Bft) W 265 0 min 0 W/m 12,4 C 6,0 C 24,4 km/h (4 Bft)
13.10.2008 11:16 13,1 C 96 % 1015,5 hPa 0,0 l/m 18,7 km/h (3 Bft) W-SW 250 0 min 0 W/m 12,5 C 7,7 C 18,7 km/h (3 Bft)
13.10.2008 11:21 13,1 C 95 % 1015,5 hPa 0,0 l/m 19,3 km/h (3 Bft) W 265 0 min 0 W/m 12,3 C 7,5 C 19,3 km/h (3 Bft)
13.10.2008 11:26 13,2 C 95 % 1015,5 hPa 0,0 l/m 19,1 km/h (3 Bft) SW 230 0 min 0 W/m 12,4 C 7,7 C 19,1 km/h (3 Bft)
13.10.2008 11:31 13,2 C 95 % 1015,5 hPa 0,0 l/m 19,4 km/h (3 Bft) W-SW 255 0 min 0 W/m 12,4 C 7,6 C 19,4 km/h (3 Bft)
13.10.2008 11:36 13,2 C 95 % 1015,5 hPa 0,0 l/m 24,4 km/h (4 Bft) W-SW 245 0 min 0 W/m 12,4 C 6,3 C 24,4 km/h (4 Bft)
13.10.2008 11:41 13,5 C 95 % 1015,5 hPa 0,0 l/m 12,4 km/h (2 Bft) W 260 0 min 0 W/m 12,7 C 10,4 C 12,4 km/h (2 Bft)
13.10.2008 11:46 13,6 C 95 % 1015,5 hPa 0,0 l/m 19,0 km/h (3 Bft) W-SW 245 0 min 0 W/m 12,8 C 8,2 C 19,0 km/h (3 Bft)
13.10.2008 11:51 13,8 C 94 % 1015,5 hPa 0,0 l/m 16,9 km/h (3 Bft) W-SW 250 0 min 0 W/m 12,9 C 9,1 C 16,9 km/h (3 Bft)
13.10.2008 11:56 13,9 C 94 % 1015,5 hPa 0,0 l/m 17,9 km/h (3 Bft) W-SW 250 0 min 0 W/m 12,9 C 8,9 C 17,9 km/h (3 Bft)
13.10.2008 12:01 13,9 C 94 % 1015,5 hPa 0,0 l/m 15,9 km/h (3 Bft) W-SW 240 0 min 0 W/m 12,9 C 9,6 C 15,9 km/h (3 Bft)
13.10.2008 12:06 14,1 C 93 % 1015,5 hPa 0,0 l/m 18,3 km/h (3 Bft) W-SW 255 0 min 0 W/m 13,0 C 9,1 C 18,3 km/h (3 Bft)
13.10.2008 12:11 14,3 C 93 % 1015,5 hPa 0,0 l/m 21,5 km/h (4 Bft) W-SW 255 0 min 0 W/m 13,2 C 8,5 C 21,5 km/h (4 Bft)
13.10.2008 12:16 14,3 C 92 % 1015,5 hPa 0,0 l/m 20,1 km/h (4 Bft) W-SW 250 0 min 0 W/m 13,0 C 8,8 C 20,1 km/h (4 Bft)
13.10.2008 12:21 14,5 C 92 % 1015,5 hPa 0,0 l/m 15,0 km/h (3 Bft) W 265 0 min 0 W/m 13,2 C 10,6 C 15,0 km/h (3 Bft)
13.10.2008 12:26 14,7 C 92 % 1015,5 hPa 0,0 l/m 14,7 km/h (3 Bft) S-SW 205 0 min 0 W/m 13,4 C 10,9 C 14,7 km/h (3 Bft)
13.10.2008 12:31 15,0 C 92 % 1015,5 hPa 0,0 l/m 17,4 km/h (3 Bft) SW 220 0 min 0 W/m 13,7 C 10,5 C 17,4 km/h (3 Bft)
13.10.2008 12:36 15,2 C 91 % 1015,5 hPa 0,0 l/m 19,1 km/h (3 Bft) SW 220 0 min 0 W/m 13,7 C 10,2 C 19,1 km/h (3 Bft)
13.10.2008 12:41 15,7 C 90 % 1015,5 hPa 0,0 l/m 18,1 km/h (3 Bft) SW 215 0 min 0 W/m 14,1 C 11,1 C 18,1 km/h (3 Bft)
13.10.2008 12:46 16,3 C 90 % 1014,5 hPa 0,0 l/m 16,1 km/h (3 Bft) S-SW 205 0 min 0 W/m 14,7 C 12,4 C 16,1 km/h (3 Bft)
13.10.2008 12:51 16,6 C 90 % 1014,5 hPa 0,0 l/m 14,3 km/h (3 Bft) SW 225 0 min 0 W/m 15,0 C 13,3 C 14,3 km/h (3 Bft)
13.10.2008 12:56 16,7 C 87 % 1015,5 hPa 0,0 l/m 17,2 km/h (3 Bft) SW 230 0 min 0 W/m 14,5 C 12,6 C 17,2 km/h (3 Bft)
13.10.2008 13:01 16,6 C 85 % 1015,5 hPa 0,0 l/m 16,8 km/h (3 Bft) SW 235 0 min 0 W/m 14,1 C 12,6 C 16,8 km/h (3 Bft)
13.10.2008 13:06 16,4 C 85 % 1014,5 hPa 0,0 l/m 16,1 km/h (3 Bft) W-SW 245 0 min 0 W/m 13,9 C 12,6 C 16,1 km/h (3 Bft)
13.10.2008 13:11 16,6 C 86 % 1014,5 hPa 0,0 l/m 13,8 km/h (3 Bft) SW 235 0 min 0 W/m 14,2 C 13,5 C 13,8 km/h (3 Bft)
13.10.2008 13:16 16,8 C 85 % 1014,5 hPa 0,0 l/m 18,8 km/h (3 Bft) SW 235 0 min 0 W/m 14,3 C 12,4 C 18,8 km/h (3 Bft)
13.10.2008 13:21 16,8 C 84 % 1014,5 hPa 0,0 l/m 18,3 km/h (3 Bft) SW 215 0 min 0 W/m 14,1 C 12,5 C 18,3 km/h (3 Bft)
13.10.2008 13:26 16,8 C 83 % 1014,5 hPa 0,0 l/m 19,0 km/h (3 Bft) SW 225 0 min 0 W/m 13,9 C 12,3 C 19,0 km/h (3 Bft)
13.10.2008 13:31 16,9 C 84 % 1014,5 hPa 0,0 l/m 18,0 km/h (3 Bft) S-SW 210 0 min 0 W/m 14,2 C 12,7 C 18,0 km/h (3 Bft)
13.10.2008 13:36 16,9 C 84 % 1014,5 hPa 0,0 l/m 18,6 km/h (3 Bft) SW 215 0 min 0 W/m 14,2 C 12,5 C 18,6 km/h (3 Bft)
13.10.2008 13:41 16,9 C 84 % 1014,5 hPa 0,0 l/m 14,3 km/h (3 Bft) W-SW 250 0 min 0 W/m 14,2 C 13,7 C 14,3 km/h (3 Bft)
13.10.2008 13:46 16,9 C 84 % 1014,5 hPa 0,0 l/m 12,8 km/h (3 Bft) W-SW 240 0 min 0 W/m 14,2 C 14,2 C 12,8 km/h (3 Bft)
13.10.2008 13:52 16,9 C 84 % 1014,5 hPa 0,0 l/m 15,1 km/h (3 Bft) SW 220 0 min 0 W/m 14,2 C 13,5 C 15,1 km/h (3 Bft)
13.10.2008 13:57 16,9 C 84 % 1014,5 hPa 0,0 l/m 17,8 km/h (3 Bft) W-SW 245 0 min 0 W/m 14,2 C 12,7 C 17,8 km/h (3 Bft)
13.10.2008 14:01 16,9 C 84 % 1013,5 hPa 0,0 l/m 15,8 km/h (3 Bft) W-SW 245 0 min 0 W/m 14,2 C 13,3 C 15,8 km/h (3 Bft)
13.10.2008 14:06 16,9 C 84 % 1013,5 hPa 0,0 l/m 18,8 km/h (3 Bft) W 260 0 min 0 W/m 14,2 C 12,5 C 18,8 km/h (3 Bft)
13.10.2008 14:11 17,0 C 83 % 1013,5 hPa 0,0 l/m 18,1 km/h (3 Bft) W-SW 245 0 min 0 W/m 14,1 C 12,8 C 18,1 km/h (3 Bft)
13.10.2008 14:16 16,9 C 83 % 1013,5 hPa 0,0 l/m 18,1 km/h (3 Bft) SW 230 0 min 0 W/m 14,0 C 12,7 C 18,1 km/h (3 Bft)
13.10.2008 14:21 16,9 C 83 % 1013,5 hPa 0,0 l/m 14,5 km/h (3 Bft) SW 230 0 min 0 W/m 14,0 C 13,6 C 14,5 km/h (3 Bft)
13.10.2008 14:26 17,0 C 84 % 1013,5 hPa 0,0 l/m 15,1 km/h (3 Bft) SW 235 0 min 0 W/m 14,3 C 13,6 C 15,1 km/h (3 Bft)
13.10.2008 14:31 17,0 C 83 % 1013,5 hPa 0,0 l/m 15,0 km/h (3 Bft) W-SW 245 0 min 0 W/m 14,1 C 13,6 C 15,0 km/h (3 Bft)
13.10.2008 14:36 16,9 C 83 % 1013,5 hPa 0,0 l/m 17,5 km/h (3 Bft) W 260 0 min 0 W/m 14,0 C 12,8 C 17,5 km/h (3 Bft)
13.10.2008 14:41 17,0 C 84 % 1013,5 hPa 0,0 l/m 17,2 km/h (3 Bft) W-SW 250 0 min 0 W/m 14,3 C 13,0 C 17,2 km/h (3 Bft)
13.10.2008 14:46 17,0 C 84 % 1013,5 hPa 0,0 l/m 13,4 km/h (3 Bft) W-SW 240 0 min 0 W/m 14,3 C 14,1 C 13,4 km/h (3 Bft)
13.10.2008 14:51 17,0 C 84 % 1013,5 hPa 0,0 l/m 21,7 km/h (4 Bft) W-SW 240 0 min 0 W/m 14,3 C 12,0 C 21,7 km/h (4 Bft)
13.10.2008 14:56 17,0 C 84 % 1013,5 hPa 0,0 l/m 17,6 km/h (3 Bft) SW 235 0 min 0 W/m 14,3 C 12,9 C 17,6 km/h (3 Bft)
13.10.2008 15:01 17,0 C 83 % 1013,5 hPa 0,0 l/m 21,3 km/h (4 Bft) W-SW 250 0 min 0 W/m 14,1 C 12,0 C 21,3 km/h (4 Bft)
13.10.2008 15:06 17,1 C 83 % 1013,5 hPa 0,0 l/m 16,6 km/h (3 Bft) W-SW 245 0 min 0 W/m 14,2 C 13,3 C 16,6 km/h (3 Bft)
13.10.2008 15:11 17,1 C 83 % 1013,5 hPa 0,0 l/m 21,1 km/h (4 Bft) W-SW 255 0 min 0 W/m 14,2 C 12,2 C 21,1 km/h (4 Bft)
13.10.2008 15:16 17,1 C 82 % 1013,5 hPa 0,0 l/m 16,9 km/h (3 Bft) W-SW 250 0 min 0 W/m 14,0 C 13,2 C 16,9 km/h (3 Bft)
13.10.2008 15:21 17,2 C 82 % 1013,5 hPa 0,0 l/m 15,1 km/h (3 Bft) W 265 0 min 0 W/m 14,1 C 13,8 C 15,1 km/h (3 Bft)
13.10.2008 15:26 17,2 C 82 % 1013,5 hPa 0,0 l/m 19,0 km/h (3 Bft) W 260 0 min 0 W/m 14,1 C 12,8 C 19,0 km/h (3 Bft)
13.10.2008 15:31 17,2 C 82 % 1013,5 hPa 0,0 l/m 15,1 km/h (3 Bft) W-SW 245 0 min 0 W/m 14,1 C 13,8 C 15,1 km/h (3 Bft)
13.10.2008 15:36 17,2 C 82 % 1013,5 hPa 0,0 l/m 21,0 km/h (4 Bft) W-SW 250 0 min 0 W/m 14,1 C 12,4 C 21,0 km/h (4 Bft)
13.10.2008 15:41 17,2 C 82 % 1013,5 hPa 0,0 l/m 21,7 km/h (4 Bft) W-SW 255 0 min 0 W/m 14,1 C 12,2 C 21,7 km/h (4 Bft)
13.10.2008 15:46 17,1 C 82 % 1013,5 hPa 0,0 l/m 20,4 km/h (4 Bft) W-SW 250 0 min 0 W/m 14,0 C 12,4 C 20,4 km/h (4 Bft)
13.10.2008 15:51 17,2 C 82 % 1013,5 hPa 0,0 l/m 25,1 km/h (4 Bft) W-SW 245 0 min 0 W/m 14,1 C 11,6 C 25,1 km/h (4 Bft)
13.10.2008 15:56 17,2 C 82 % 1013,5 hPa 0,0 l/m 21,5 km/h (4 Bft) W-SW 245 0 min 0 W/m 14,1 C 12,3 C 21,5 km/h (4 Bft)
13.10.2008 16:01 17,2 C 82 % 1013,5 hPa 0,0 l/m 22,1 km/h (4 Bft) W-SW 250 0 min 0 W/m 14,1 C 12,1 C 22,1 km/h (4 Bft)
13.10.2008 16:06 17,1 C 82 % 1013,5 hPa 0,0 l/m 26,4 km/h (4 Bft) W 260 0 min 0 W/m 14,0 C 11,2 C 26,4 km/h (4 Bft)
13.10.2008 16:11 17,1 C 82 % 1013,5 hPa 0,0 l/m 25,1 km/h (4 Bft) W-SW 250 0 min 0 W/m 14,0 C 11,4 C 25,1 km/h (4 Bft)
13.10.2008 16:16 17,1 C 82 % 1013,5 hPa 0,0 l/m 23,9 km/h (4 Bft) W 260 0 min 0 W/m 14,0 C 11,7 C 23,9 km/h (4 Bft)
13.10.2008 16:21 17,1 C 82 % 1013,5 hPa 0,0 l/m 19,8 km/h (3 Bft) W 260 0 min 0 W/m 14,0 C 12,5 C 19,8 km/h (3 Bft)
13.10.2008 16:26 17,1 C 82 % 1013,5 hPa 0,0 l/m 21,5 km/h (4 Bft) W-SW 250 0 min 0 W/m 14,0 C 12,1 C 21,5 km/h (4 Bft)
13.10.2008 16:31 17,2 C 82 % 1012,5 hPa 0,0 l/m 20,3 km/h (4 Bft) W 265 0 min 0 W/m 14,1 C 12,5 C 20,3 km/h (4 Bft)
13.10.2008 16:36 17,2 C 82 % 1012,5 hPa 0,0 l/m 16,6 km/h (3 Bft) W-SW 250 0 min 0 W/m 14,1 C 13,4 C 16,6 km/h (3 Bft)
13.10.2008 16:41 17,2 C 82 % 1012,5 hPa 0,0 l/m 16,1 km/h (3 Bft) W-SW 255 0 min 0 W/m 14,1 C 13,5 C 16,1 km/h (3 Bft)
13.10.2008 16:46 17,2 C 82 % 1012,5 hPa 0,0 l/m 17,4 km/h (3 Bft) W-SW 245 0 min 0 W/m 14,1 C 13,2 C 17,4 km/h (3 Bft)
13.10.2008 16:51 17,2 C 83 % 1012,5 hPa 0,0 l/m 22,0 km/h (4 Bft) W-SW 250 0 min 0 W/m 14,3 C 12,2 C 22,0 km/h (4 Bft)
13.10.2008 16:56 17,0 C 83 % 1012,5 hPa 0,0 l/m 17,3 km/h (3 Bft) W-SW 255 0 min 0 W/m 14,1 C 13,0 C 17,3 km/h (3 Bft)
13.10.2008 17:01 16,9 C 83 % 1012,5 hPa 0,0 l/m 19,8 km/h (3 Bft) W-SW 245 0 min 0 W/m 14,0 C 12,2 C 19,8 km/h (3 Bft)
13.10.2008 17:06 16,9 C 83 % 1012,5 hPa 0,0 l/m 22,3 km/h (4 Bft) W-SW 250 0 min 0 W/m 14,0 C 11,7 C 22,3 km/h (4 Bft)
13.10.2008 17:11 16,8 C 84 % 1012,5 hPa 0,0 l/m 19,3 km/h (3 Bft) W-SW 255 0 min 0 W/m 14,1 C 12,2 C 19,3 km/h (3 Bft)
13.10.2008 17:16 16,7 C 85 % 1012,5 hPa 0,3 l/m 15,7 km/h (3 Bft) SW 235 0 min 0 W/m 14,2 C 13,0 C 15,7 km/h (3 Bft)
13.10.2008 17:21 16,5 C 86 % 1012,5 hPa 0,0 l/m 25,0 km/h (4 Bft) W-SW 255 0 min 0 W/m 14,1 C 10,6 C 25,0 km/h (4 Bft)
13.10.2008 17:26 16,5 C 86 % 1012,5 hPa 0,0 l/m 21,6 km/h (4 Bft) W 260 0 min 0 W/m 14,1 C 11,3 C 21,6 km/h (4 Bft)
13.10.2008 17:31 16,5 C 86 % 1012,5 hPa 0,0 l/m 19,5 km/h (3 Bft) W 260 0 min 0 W/m 14,1 C 11,8 C 19,5 km/h (3 Bft)
13.10.2008 17:36 16,3 C 86 % 1012,5 hPa 0,0 l/m 18,0 km/h (3 Bft) W-SW 245 0 min 0 W/m 14,0 C 11,9 C 18,0 km/h (3 Bft)
13.10.2008 17:41 16,3 C 87 % 1012,5 hPa 0,0 l/m 18,0 km/h (3 Bft) W 260 0 min 0 W/m 14,1 C 11,9 C 18,0 km/h (3 Bft)
13.10.2008 17:46 16,3 C 86 % 1012,5 hPa 0,0 l/m 24,7 km/h (4 Bft) W-SW 250 0 min 0 W/m 14,0 C 10,4 C 24,7 km/h (4 Bft)
13.10.2008 17:51 16,2 C 86 % 1012,5 hPa 0,0 l/m 19,9 km/h (4 Bft) W 265 0 min 0 W/m 13,9 C 11,3 C 19,9 km/h (4 Bft)
13.10.2008 17:56 16,2 C 86 % 1012,5 hPa 0,0 l/m 14,8 km/h (3 Bft) W 260 0 min 0 W/m 13,9 C 12,7 C 14,8 km/h (3 Bft)
13.10.2008 18:01 16,3 C 86 % 1012,5 hPa 0,0 l/m 18,3 km/h (3 Bft) W-SW 255 0 min 0 W/m 14,0 C 11,8 C 18,3 km/h (3 Bft)
13.10.2008 18:06 16,3 C 86 % 1012,5 hPa 0,0 l/m 16,4 km/h (3 Bft) W-SW 250 0 min 0 W/m 14,0 C 12,4 C 16,4 km/h (3 Bft)
13.10.2008 18:11 16,2 C 87 % 1012,5 hPa 0,0 l/m 16,7 km/h (3 Bft) W-SW 255 0 min 0 W/m 14,0 C 12,1 C 16,7 km/h (3 Bft)
13.10.2008 18:16 16,2 C 87 % 1012,5 hPa 0,0 l/m 15,8 km/h (3 Bft) W 260 0 min 0 W/m 14,0 C 12,4 C 15,8 km/h (3 Bft)
13.10.2008 18:21 16,3 C 87 % 1012,5 hPa 0,0 l/m 15,1 km/h (3 Bft) W 265 0 min 0 W/m 14,1 C 12,7 C 15,1 km/h (3 Bft)
13.10.2008 18:26 16,2 C 86 % 1012,5 hPa 0,0 l/m 17,0 km/h (3 Bft) W 265 0 min 0 W/m 13,9 C 12,1 C 17,0 km/h (3 Bft)
13.10.2008 18:31 16,2 C 86 % 1012,5 hPa 0,0 l/m 13,2 km/h (3 Bft) W-SW 255 0 min 0 W/m 13,9 C 13,2 C 13,2 km/h (3 Bft)
13.10.2008 18:36 16,2 C 86 % 1012,5 hPa 0,0 l/m 16,0 km/h (3 Bft) W 260 0 min 0 W/m 13,9 C 12,3 C 16,0 km/h (3 Bft)
13.10.2008 18:41 16,2 C 86 % 1012,5 hPa 0,0 l/m 15,5 km/h (3 Bft) W 265 0 min 0 W/m 13,9 C 12,5 C 15,5 km/h (3 Bft)
13.10.2008 18:46 16,3 C 86 % 1012,5 hPa 0,0 l/m 22,9 km/h (4 Bft) W 260 0 min 0 W/m 14,0 C 10,8 C 22,9 km/h (4 Bft)
13.10.2008 18:51 16,3 C 86 % 1012,5 hPa 0,0 l/m 14,3 km/h (3 Bft) W 270 0 min 0 W/m 14,0 C 13,0 C 14,3 km/h (3 Bft)
13.10.2008 18:56 16,3 C 86 % 1012,5 hPa 0,0 l/m 18,0 km/h (3 Bft) W 265 0 min 0 W/m 14,0 C 11,9 C 18,0 km/h (3 Bft)
13.10.2008 19:01 16,4 C 86 % 1012,5 hPa 0,0 l/m 18,5 km/h (3 Bft) W 265 0 min 0 W/m 14,1 C 11,9 C 18,5 km/h (3 Bft)
13.10.2008 19:06 16,4 C 86 % 1012,5 hPa 0,0 l/m 20,2 km/h (4 Bft) W 270 0 min 0 W/m 14,1 C 11,5 C 20,2 km/h (4 Bft)
13.10.2008 19:11 16,4 C 86 % 1012,5 hPa 0,0 l/m 21,6 km/h (4 Bft) W 260 0 min 0 W/m 14,1 C 11,2 C 21,6 km/h (4 Bft)
13.10.2008 19:16 16,6 C 86 % 1012,5 hPa 0,0 l/m 16,0 km/h (3 Bft) W 270 0 min 0 W/m 14,2 C 12,8 C 16,0 km/h (3 Bft)
13.10.2008 19:21 16,6 C 86 % 1012,5 hPa 0,0 l/m 21,7 km/h (4 Bft) W 270 0 min 0 W/m 14,2 C 11,4 C 21,7 km/h (4 Bft)
13.10.2008 19:26 16,6 C 86 % 1012,5 hPa 0,0 l/m 23,8 km/h (4 Bft) W 265 0 min 0 W/m 14,2 C 11,0 C 23,8 km/h (4 Bft)
13.10.2008 19:31 16,7 C 86 % 1012,5 hPa 0,0 l/m 23,7 km/h (4 Bft) W 265 0 min 0 W/m 14,3 C 11,2 C 23,7 km/h (4 Bft)
13.10.2008 19:36 16,7 C 86 % 1012,5 hPa 0,0 l/m 25,8 km/h (4 Bft) W 260 0 min 0 W/m 14,3 C 10,8 C 25,8 km/h (4 Bft)
13.10.2008 19:41 16,7 C 86 % 1012,5 hPa 0,0 l/m 22,5 km/h (4 Bft) W 265 0 min 0 W/m 14,3 C 11,4 C 22,5 km/h (4 Bft)
13.10.2008 19:46 16,7 C 86 % 1012,5 hPa 0,0 l/m 21,1 km/h (4 Bft) W 265 0 min 0 W/m 14,3 C 11,7 C 21,1 km/h (4 Bft)
13.10.2008 19:51 16,6 C 86 % 1012,5 hPa 0,0 l/m 25,2 km/h (4 Bft) W 260 0 min 0 W/m 14,2 C 10,7 C 25,2 km/h (4 Bft)
13.10.2008 19:56 16,6 C 86 % 1012,5 hPa 0,0 l/m 17,4 km/h (3 Bft) W 265 0 min 0 W/m 14,2 C 12,5 C 17,4 km/h (3 Bft)
13.10.2008 20:01 16,6 C 86 % 1012,5 hPa 0,0 l/m 21,5 km/h (4 Bft) W 265 0 min 0 W/m 14,2 C 11,5 C 21,5 km/h (4 Bft)
13.10.2008 20:07 16,6 C 86 % 1012,5 hPa 0,0 l/m 21,8 km/h (4 Bft) W 265 0 min 0 W/m 14,2 C 11,4 C 21,8 km/h (4 Bft)
13.10.2008 20:11 16,6 C 86 % 1012,5 hPa 0,0 l/m 19,0 km/h (3 Bft) W 270 0 min 0 W/m 14,2 C 12,1 C 19,0 km/h (3 Bft)
13.10.2008 20:16 16,6 C 86 % 1012,5 hPa 0,0 l/m 17,6 km/h (3 Bft) W 265 0 min 0 W/m 14,2 C 12,4 C 17,6 km/h (3 Bft)
13.10.2008 20:21 16,6 C 86 % 1012,5 hPa 0,0 l/m 20,4 km/h (4 Bft) W 265 0 min 0 W/m 14,2 C 11,7 C 20,4 km/h (4 Bft)
13.10.2008 20:26 16,7 C 87 % 1012,5 hPa 0,0 l/m 22,0 km/h (4 Bft) W 265 0 min 0 W/m 14,5 C 11,5 C 22,0 km/h (4 Bft)
13.10.2008 20:31 16,7 C 86 % 1012,5 hPa 0,0 l/m 22,9 km/h (4 Bft) W 265 0 min 0 W/m 14,3 C 11,3 C 22,9 km/h (4 Bft)
13.10.2008 20:36 16,8 C 86 % 1012,5 hPa 0,0 l/m 24,3 km/h (4 Bft) W 270 0 min 0 W/m 14,4 C 11,2 C 24,3 km/h (4 Bft)
13.10.2008 20:41 16,9 C 86 % 1012,5 hPa 0,0 l/m 23,1 km/h (4 Bft) W 270 0 min 0 W/m 14,5 C 11,5 C 23,1 km/h (4 Bft)
13.10.2008 20:46 16,9 C 86 % 1012,5 hPa 0,0 l/m 17,3 km/h (3 Bft) W 270 0 min 0 W/m 14,5 C 12,9 C 17,3 km/h (3 Bft)
13.10.2008 20:51 16,9 C 85 % 1012,5 hPa 0,0 l/m 20,8 km/h (4 Bft) W 275 0 min 0 W/m 14,4 C 12,0 C 20,8 km/h (4 Bft)
13.10.2008 20:56 17,0 C 85 % 1012,5 hPa 0,0 l/m 24,8 km/h (4 Bft) W 275 0 min 0 W/m 14,5 C 11,4 C 24,8 km/h (4 Bft)
13.10.2008 21:01 17,0 C 85 % 1012,5 hPa 0,0 l/m 21,8 km/h (4 Bft) W 275 0 min 0 W/m 14,5 C 11,9 C 21,8 km/h (4 Bft)
13.10.2008 21:06 17,0 C 85 % 1012,5 hPa 0,0 l/m 23,3 km/h (4 Bft) W 280 0 min 0 W/m 14,5 C 11,6 C 23,3 km/h (4 Bft)
13.10.2008 21:11 16,8 C 86 % 1012,5 hPa 0,0 l/m 22,1 km/h (4 Bft) W 270 0 min 0 W/m 14,4 C 11,6 C 22,1 km/h (4 Bft)
13.10.2008 21:16 16,8 C 86 % 1012,5 hPa 0,0 l/m 23,9 km/h (4 Bft) W 275 0 min 0 W/m 14,4 C 11,3 C 23,9 km/h (4 Bft)
13.10.2008 21:21 16,8 C 86 % 1012,5 hPa 0,0 l/m 17,3 km/h (3 Bft) W 280 0 min 0 W/m 14,4 C 12,7 C 17,3 km/h (3 Bft)
13.10.2008 21:26 16,8 C 86 % 1012,5 hPa 0,0 l/m 21,2 km/h (4 Bft) W 275 0 min 0 W/m 14,4 C 11,8 C 21,2 km/h (4 Bft)
13.10.2008 21:32 16,7 C 87 % 1012,5 hPa 0,0 l/m 20,3 km/h (4 Bft) W 275 0 min 0 W/m 14,5 C 11,9 C 20,3 km/h (4 Bft)
13.10.2008 21:36 16,7 C 87 % 1012,5 hPa 0,0 l/m 19,4 km/h (3 Bft) W 280 0 min 0 W/m 14,5 C 12,1 C 19,4 km/h (3 Bft)
13.10.2008 21:41 16,6 C 86 % 1012,5 hPa 0,0 l/m 17,8 km/h (3 Bft) W 275 0 min 0 W/m 14,2 C 12,4 C 17,8 km/h (3 Bft)
13.10.2008 21:46 16,5 C 87 % 1012,5 hPa 0,0 l/m 17,5 km/h (3 Bft) W 275 0 min 0 W/m 14,3 C 12,3 C 17,5 km/h (3 Bft)
13.10.2008 21:51 16,5 C 87 % 1012,5 hPa 0,0 l/m 15,5 km/h (3 Bft) W-NW 285 0 min 0 W/m 14,3 C 12,9 C 15,5 km/h (3 Bft)
13.10.2008 21:56 16,3 C 87 % 1012,5 hPa 0,0 l/m 15,1 km/h (3 Bft) W 270 0 min 0 W/m 14,1 C 12,7 C 15,1 km/h (3 Bft)
13.10.2008 22:01 16,2 C 87 % 1012,5 hPa 0,0 l/m 15,0 km/h (3 Bft) W 275 0 min 0 W/m 14,0 C 12,6 C 15,0 km/h (3 Bft)
13.10.2008 22:06 16,1 C 88 % 1012,5 hPa 0,0 l/m 13,0 km/h (3 Bft) W 265 0 min 0 W/m 14,1 C 13,2 C 13,0 km/h (3 Bft)
13.10.2008 22:11 15,9 C 88 % 1012,5 hPa 0,0 l/m 19,8 km/h (3 Bft) W-NW 285 0 min 0 W/m 13,9 C 11,0 C 19,8 km/h (3 Bft)
13.10.2008 22:16 15,8 C 89 % 1012,5 hPa 0,0 l/m 15,1 km/h (3 Bft) W-NW 295 0 min 0 W/m 14,0 C 12,1 C 15,1 km/h (3 Bft)
13.10.2008 22:21 15,6 C 89 % 1012,5 hPa 0,0 l/m 12,5 km/h (2 Bft) W-NW 285 0 min 0 W/m 13,8 C 12,8 C 12,5 km/h (2 Bft)
13.10.2008 22:26 15,5 C 89 % 1012,5 hPa 0,0 l/m 19,8 km/h (3 Bft) W-NW 285 0 min 0 W/m 13,7 C 10,4 C 19,8 km/h (3 Bft)
13.10.2008 22:31 15,3 C 90 % 1012,5 hPa 0,0 l/m 19,3 km/h (3 Bft) W-NW 285 0 min 0 W/m 13,7 C 10,3 C 19,3 km/h (3 Bft)
13.10.2008 22:36 15,2 C 90 % 1012,5 hPa 0,0 l/m 19,5 km/h (3 Bft) W-NW 290 0 min 0 W/m 13,6 C 10,1 C 19,5 km/h (3 Bft)
13.10.2008 22:41 15,1 C 91 % 1012,5 hPa 0,0 l/m 17,5 km/h (3 Bft) W-NW 285 0 min 0 W/m 13,6 C 10,5 C 17,5 km/h (3 Bft)
13.10.2008 22:46 15,0 C 92 % 1013,5 hPa 0,0 l/m 18,3 km/h (3 Bft) W-NW 285 0 min 0 W/m 13,7 C 10,2 C 18,3 km/h (3 Bft)
13.10.2008 22:51 15,0 C 92 % 1013,5 hPa 0,0 l/m 16,1 km/h (3 Bft) W-NW 285 0 min 0 W/m 13,7 C 10,8 C 16,1 km/h (3 Bft)
13.10.2008 22:56 15,0 C 92 % 1013,5 hPa 0,0 l/m 15,8 km/h (3 Bft) W-NW 295 0 min 0 W/m 13,7 C 10,9 C 15,8 km/h (3 Bft)
13.10.2008 23:01 14,9 C 92 % 1013,5 hPa 0,0 l/m 14,0 km/h (3 Bft) W-NW 295 0 min 0 W/m 13,6 C 11,4 C 14,0 km/h (3 Bft)
13.10.2008 23:06 14,8 C 92 % 1013,5 hPa 0,0 l/m 13,9 km/h (3 Bft) W-NW 295 0 min 0 W/m 13,5 C 11,3 C 13,9 km/h (3 Bft)
13.10.2008 23:11 14,8 C 93 % 1013,5 hPa 0,0 l/m 16,8 km/h (3 Bft) W-NW 295 0 min 0 W/m 13,7 C 10,4 C 16,8 km/h (3 Bft)
13.10.2008 23:16 14,7 C 93 % 1013,5 hPa 0,0 l/m 14,8 km/h (3 Bft) W 280 0 min 0 W/m 13,6 C 10,9 C 14,8 km/h (3 Bft)
13.10.2008 23:21 14,6 C 93 % 1013,5 hPa 0,0 l/m 15,0 km/h (3 Bft) NW 305 0 min 0 W/m 13,5 C 10,7 C 15,0 km/h (3 Bft)
13.10.2008 23:26 14,6 C 94 % 1012,5 hPa 0,0 l/m 16,3 km/h (3 Bft) W-NW 295 0 min 0 W/m 13,6 C 10,3 C 16,3 km/h (3 Bft)
13.10.2008 23:31 14,6 C 94 % 1013,5 hPa 0,0 l/m 16,5 km/h (3 Bft) W-NW 300 0 min 0 W/m 13,6 C 10,2 C 16,5 km/h (3 Bft)
13.10.2008 23:36 14,5 C 94 % 1012,5 hPa 0,0 l/m 17,1 km/h (3 Bft) W-NW 290 0 min 0 W/m 13,5 C 9,9 C 17,1 km/h (3 Bft)
13.10.2008 23:41 14,5 C 94 % 1012,5 hPa 0,0 l/m 18,3 km/h (3 Bft) W-NW 285 0 min 0 W/m 13,5 C 9,6 C 18,3 km/h (3 Bft)
13.10.2008 23:47 14,5 C 94 % 1012,5 hPa 0,0 l/m 14,7 km/h (3 Bft) W-NW 295 0 min 0 W/m 13,5 C 10,7 C 14,7 km/h (3 Bft)
13.10.2008 23:51 14,5 C 94 % 1012,5 hPa 0,0 l/m 16,8 km/h (3 Bft) W-NW 290 0 min 0 W/m 13,5 C 10,0 C 16,8 km/h (3 Bft)
13.10.2008 23:56 14,5 C 95 % 1012,5 hPa 0,0 l/m 9,0 km/h (2 Bft) W 265 0 min 0 W/m 13,7 C 13,1 C 9,0 km/h (2 Bft)
_ Min-Zeit 04:26 15:16 16:31 - 02:21 - - - - 04:26 10:36 02:21
Minimum _ 9,2 C 82 % 1012,5 hPa - 0,0 km/h (0 Bft) - - - - 7,6 C 5,1 C 0,0 km/h (0 Bft)
_ Max-Zeit 15:21 10:16 00:02 05:56 10:36 - - 00:02 00:02 12:51 13:46 10:36
Maximum _ 17,2 C 96 % 1021,5 hPa 0,3 l/m 27,4 km/h
W (5 Bft)
- - 0 min 0 W/m 15,0 C 14,2 C 27,4 km/h
W (5 Bft)
Durchschnitt _ 13,8 C 89 % 1015,7 hPa #0,6 l/m 14,2 km/h (3 Bft) W - #0 min. 0 W/m 12,0 C 10,5 C 14,2 km/h (3 Bft)
copyright by Holger Just